sensor_id;sensor_type;location;lat;lon;timestamp;temperature;humidity
19924;DHT22;10124;53.068;18.224;2023-04-03T00:01:10;0.40;1.00
19924;DHT22;10124;53.068;18.224;2023-04-03T00:06:05;0.10;1.00
19924;DHT22;10124;53.068;18.224;2023-04-03T00:13:30;0.30;1.00
19924;DHT22;10124;53.068;18.224;2023-04-03T00:15:58;0.40;1.00
19924;DHT22;10124;53.068;18.224;2023-04-03T00:18:25;0.40;1.00
19924;DHT22;10124;53.068;18.224;2023-04-03T00:20:53;0.60;1.00
19924;DHT22;10124;53.068;18.224;2023-04-03T00:25:48;0.20;1.00
19924;DHT22;10124;53.068;18.224;2023-04-03T00:28:16;0.90;1.00
19924;DHT22;10124;53.068;18.224;2023-04-03T00:30:44;0.30;1.00
19924;DHT22;10124;53.068;18.224;2023-04-03T00:33:14;1.60;1.00
19924;DHT22;10124;53.068;18.224;2023-04-03T00:35:42;0.30;1.00
19924;DHT22;10124;53.068;18.224;2023-04-03T00:40:42;0.30;1.00
19924;DHT22;10124;53.068;18.224;2023-04-03T00:43:17;0.20;1.00
19924;DHT22;10124;53.068;18.224;2023-04-03T00:45:50;0.60;1.00
19924;DHT22;10124;53.068;18.224;2023-04-03T00:48:26;0.30;1.00
19924;DHT22;10124;53.068;18.224;2023-04-03T00:50:57;0.20;1.00
19924;DHT22;10124;53.068;18.224;2023-04-03T00:53:42;0.10;1.00
19924;DHT22;10124;53.068;18.224;2023-04-03T00:56:15;0.00;1.00
19924;DHT22;10124;53.068;18.224;2023-04-03T01:01:24;0.10;1.00
19924;DHT22;10124;53.068;18.224;2023-04-03T01:03:52;0.00;1.00
19924;DHT22;10124;53.068;18.224;2023-04-03T01:06:32;-0.10;1.00
19924;DHT22;10124;53.068;18.224;2023-04-03T01:19:00;0.00;1.00
19924;DHT22;10124;53.068;18.224;2023-04-03T01:24:22;-0.10;99.90
19924;DHT22;10124;53.068;18.224;2023-04-03T01:31:53;0.00;99.90
19924;DHT22;10124;53.068;18.224;2023-04-03T01:41:48;-0.40;1.00
19924;DHT22;10124;53.068;18.224;2023-04-03T02:51:13;-0.80;1.00
19924;DHT22;10124;53.068;18.224;2023-04-03T02:53:40;-0.70;1.00
19924;DHT22;10124;53.068;18.224;2023-04-03T03:06:07;-0.70;1.00
19924;DHT22;10124;53.068;18.224;2023-04-03T03:11:04;-0.60;99.90
19924;DHT22;10124;53.068;18.224;2023-04-03T03:20:59;-0.70;1.00
19924;DHT22;10124;53.068;18.224;2023-04-03T03:23:28;-0.70;1.00
19924;DHT22;10124;53.068;18.224;2023-04-03T03:26:03;-0.70;1.00
19924;DHT22;10124;53.068;18.224;2023-04-03T04:20:45;-1.50;1.00
19924;DHT22;10124;53.068;18.224;2023-04-03T04:23:17;-1.00;1.00
19924;DHT22;10124;53.068;18.224;2023-04-03T04:25:48;-0.90;1.00
19924;DHT22;10124;53.068;18.224;2023-04-03T04:45:38;-0.70;1.00
19924;DHT22;10124;53.068;18.224;2023-04-03T04:50:33;-0.50;1.00
19924;DHT22;10124;53.068;18.224;2023-04-03T04:53:01;-0.70;1.00
19924;DHT22;10124;53.068;18.224;2023-04-03T04:55:28;-0.70;1.00
19924;DHT22;10124;53.068;18.224;2023-04-03T05:02:54;-0.70;99.90
19924;DHT22;10124;53.068;18.224;2023-04-03T05:05:21;-0.70;1.00
19924;DHT22;10124;53.068;18.224;2023-04-03T05:10:17;-0.60;99.90
19924;DHT22;10124;53.068;18.224;2023-04-03T05:12:46;0.10;99.90
19924;DHT22;10124;53.068;18.224;2023-04-03T05:52:44;0.80;1.00
19924;DHT22;10124;53.068;18.224;2023-04-03T05:55:14;0.70;1.00
19924;DHT22;10124;53.068;18.224;2023-04-03T06:00:14;1.00;1.00
19924;DHT22;10124;53.068;18.224;2023-04-03T06:10:20;2.40;1.00
19924;DHT22;10124;53.068;18.224;2023-04-03T06:15:15;2.80;1.00
19924;DHT22;10124;53.068;18.224;2023-04-03T06:20:13;3.70;1.00
19924;DHT22;10124;53.068;18.224;2023-04-03T06:22:40;3.50;1.00
19924;DHT22;10124;53.068;18.224;2023-04-03T06:25:10;3.80;1.00
19924;DHT22;10124;53.068;18.224;2023-04-03T06:30:07;5.00;1.00
19924;DHT22;10124;53.068;18.224;2023-04-03T06:35:04;5.50;99.90
19924;DHT22;10124;53.068;18.224;2023-04-03T07:02:26;4.40;99.90
19924;DHT22;10124;53.068;18.224;2023-04-03T07:29:35;5.80;1.00
19924;DHT22;10124;53.068;18.224;2023-04-03T07:32:03;6.70;1.00
19924;DHT22;10124;53.068;18.224;2023-04-03T07:37:00;6.90;99.90
19924;DHT22;10124;53.068;18.224;2023-04-03T07:39:28;6.90;1.00
19924;DHT22;10124;53.068;18.224;2023-04-03T07:41:56;7.20;1.00
19924;DHT22;10124;53.068;18.224;2023-04-03T07:44:24;7.70;1.00
19924;DHT22;10124;53.068;18.224;2023-04-03T07:46:51;7.40;1.00
19924;DHT22;10124;53.068;18.224;2023-04-03T07:49:19;8.00;1.00
19924;DHT22;10124;53.068;18.224;2023-04-03T07:51:46;7.80;99.90
19924;DHT22;10124;53.068;18.224;2023-04-03T07:54:15;8.10;1.00
19924;DHT22;10124;53.068;18.224;2023-04-03T07:56:43;8.40;99.90
19924;DHT22;10124;53.068;18.224;2023-04-03T07:59:11;9.10;1.00
19924;DHT22;10124;53.068;18.224;2023-04-03T08:01:39;9.20;1.00
19924;DHT22;10124;53.068;18.224;2023-04-03T08:04:06;8.90;1.00
19924;DHT22;10124;53.068;18.224;2023-04-03T08:06:34;10.80;1.00
19924;DHT22;10124;53.068;18.224;2023-04-03T08:09:15;8.00;1.00
19924;DHT22;10124;53.068;18.224;2023-04-03T08:11:43;8.60;1.00
19924;DHT22;10124;53.068;18.224;2023-04-03T08:14:12;9.00;1.00
19924;DHT22;10124;53.068;18.224;2023-04-03T08:16:46;9.00;1.00
19924;DHT22;10124;53.068;18.224;2023-04-03T08:19:15;9.20;1.00
19924;DHT22;10124;53.068;18.224;2023-04-03T08:21:53;9.60;1.00
19924;DHT22;10124;53.068;18.224;2023-04-03T08:24:21;10.00;1.00
19924;DHT22;10124;53.068;18.224;2023-04-03T08:26:50;10.40;1.00
19924;DHT22;10124;53.068;18.224;2023-04-03T08:29:17;10.80;99.90
19924;DHT22;10124;53.068;18.224;2023-04-03T08:31:45;10.60;99.90
19924;DHT22;10124;53.068;18.224;2023-04-03T08:34:13;10.30;1.00
19924;DHT22;10124;53.068;18.224;2023-04-03T08:36:42;10.70;1.00
19924;DHT22;10124;53.068;18.224;2023-04-03T08:39:11;10.60;1.00
19924;DHT22;10124;53.068;18.224;2023-04-03T08:41:43;10.40;1.00
19924;DHT22;10124;53.068;18.224;2023-04-03T08:47:16;11.10;1.00
19924;DHT22;10124;53.068;18.224;2023-04-03T08:52:25;11.20;1.00
19924;DHT22;10124;53.068;18.224;2023-04-03T08:54:59;11.60;1.00
19924;DHT22;10124;53.068;18.224;2023-04-03T08:57:34;12.10;1.00
19924;DHT22;10124;53.068;18.224;2023-04-03T09:02:50;11.10;1.00
19924;DHT22;10124;53.068;18.224;2023-04-03T09:06:04;10.60;1.00
19924;DHT22;10124;53.068;18.224;2023-04-03T09:08:27;10.60;1.00
19924;DHT22;10124;53.068;18.224;2023-04-03T09:11:15;10.80;1.00
19924;DHT22;10124;53.068;18.224;2023-04-03T09:13:57;10.70;1.00
19924;DHT22;10124;53.068;18.224;2023-04-03T09:16:39;10.40;1.00
19924;DHT22;10124;53.068;18.224;2023-04-03T09:19:22;10.40;1.00
19924;DHT22;10124;53.068;18.224;2023-04-03T09:21:50;11.00;1.00
19924;DHT22;10124;53.068;18.224;2023-04-03T09:24:20;11.60;1.00
19924;DHT22;10124;53.068;18.224;2023-04-03T09:29:22;12.20;1.00
19924;DHT22;10124;53.068;18.224;2023-04-03T09:31:55;11.30;1.00
19924;DHT22;10124;53.068;18.224;2023-04-03T09:34:27;10.50;1.00
19924;DHT22;10124;53.068;18.224;2023-04-03T09:36:57;10.20;1.00
19924;DHT22;10124;53.068;18.224;2023-04-03T09:39:28;10.00;1.00
19924;DHT22;10124;53.068;18.224;2023-04-03T09:44:36;9.80;1.00
19924;DHT22;10124;53.068;18.224;2023-04-03T09:52:43;12.00;1.00
19924;DHT22;10124;53.068;18.224;2023-04-03T09:55:16;12.60;1.00
19924;DHT22;10124;53.068;18.224;2023-04-03T09:57:45;12.70;1.00
19924;DHT22;10124;53.068;18.224;2023-04-03T10:00:26;12.50;1.00
19924;DHT22;10124;53.068;18.224;2023-04-03T10:02:56;13.10;1.00
19924;DHT22;10124;53.068;18.224;2023-04-03T10:05:40;11.30;1.00
19924;DHT22;10124;53.068;18.224;2023-04-03T10:10:37;9.40;1.00
19924;DHT22;10124;53.068;18.224;2023-04-03T10:15:39;10.10;1.00
19924;DHT22;10124;53.068;18.224;2023-04-03T10:20:51;13.00;1.00
19924;DHT22;10124;53.068;18.224;2023-04-03T10:43:40;8.20;1.00
19924;DHT22;10124;53.068;18.224;2023-04-03T10:46:11;7.60;42.00
19924;DHT22;10124;53.068;18.224;2023-04-03T10:49:05;7.70;99.90
19924;DHT22;10124;53.068;18.224;2023-04-03T10:51:41;7.70;95.60
19924;DHT22;10124;53.068;18.224;2023-04-03T10:54:25;8.00;99.90
19924;DHT22;10124;53.068;18.224;2023-04-03T10:57:01;8.40;91.40
19924;DHT22;10124;53.068;18.224;2023-04-03T10:59:55;8.50;47.30
19924;DHT22;10124;53.068;18.224;2023-04-03T11:08:04;12.30;1.00
19924;DHT22;10124;53.068;18.224;2023-04-03T11:15:57;13.60;1.00
19924;DHT22;10124;53.068;18.224;2023-04-03T11:18:37;14.30;1.00
19924;DHT22;10124;53.068;18.224;2023-04-03T11:21:16;13.90;1.00
19924;DHT22;10124;53.068;18.224;2023-04-03T11:23:45;13.60;1.00
19924;DHT22;10124;53.068;18.224;2023-04-03T11:26:19;14.30;1.00
19924;DHT22;10124;53.068;18.224;2023-04-03T11:29:15;14.80;1.00
19924;DHT22;10124;53.068;18.224;2023-04-03T11:35:00;12.90;1.00
19924;DHT22;10124;53.068;18.224;2023-04-03T11:37:31;11.50;1.00
19924;DHT22;10124;53.068;18.224;2023-04-03T11:42:37;10.80;1.00
19924;DHT22;10124;53.068;18.224;2023-04-03T11:48:00;9.30;1.00
19924;DHT22;10124;53.068;18.224;2023-04-03T11:50:46;9.30;1.00
19924;DHT22;10124;53.068;18.224;2023-04-03T12:01:07;13.70;1.00
19924;DHT22;10124;53.068;18.224;2023-04-03T12:13:41;9.20;1.00
19924;DHT22;10124;53.068;18.224;2023-04-03T12:16:24;11.00;12.10
19924;DHT22;10124;53.068;18.224;2023-04-03T12:21:23;8.50;99.90
19924;DHT22;10124;53.068;18.224;2023-04-03T12:35:19;8.20;99.90
19924;DHT22;10124;53.068;18.224;2023-04-03T12:48:52;10.50;59.50
19924;DHT22;10124;53.068;18.224;2023-04-03T12:51:40;10.70;52.70
19924;DHT22;10124;53.068;18.224;2023-04-03T12:54:36;9.70;18.70
19924;DHT22;10124;53.068;18.224;2023-04-03T12:57:19;9.20;1.00
19924;DHT22;10124;53.068;18.224;2023-04-03T12:59:50;8.90;1.00
19924;DHT22;10124;53.068;18.224;2023-04-03T13:02:27;9.10;64.70
19924;DHT22;10124;53.068;18.224;2023-04-03T13:05:09;8.80;79.60
19924;DHT22;10124;53.068;18.224;2023-04-03T13:08:00;8.00;93.30
19924;DHT22;10124;53.068;18.224;2023-04-03T13:11:35;7.80;99.90
19924;DHT22;10124;53.068;18.224;2023-04-03T13:14:17;8.20;99.90
19924;DHT22;10124;53.068;18.224;2023-04-03T13:16:59;7.70;87.40
19924;DHT22;10124;53.068;18.224;2023-04-03T13:19:28;7.50;99.90
19924;DHT22;10124;53.068;18.224;2023-04-03T13:22:04;8.60;99.90
19924;DHT22;10124;53.068;18.224;2023-04-03T13:24:37;10.20;91.20
19924;DHT22;10124;53.068;18.224;2023-04-03T13:27:10;11.10;33.40
19924;DHT22;10124;53.068;18.224;2023-04-03T13:29:38;11.10;3.50
19924;DHT22;10124;53.068;18.224;2023-04-03T13:32:07;9.90;6.30
19924;DHT22;10124;53.068;18.224;2023-04-03T13:34:45;9.20;57.20
19924;DHT22;10124;53.068;18.224;2023-04-03T13:37:30;8.40;46.90
19924;DHT22;10124;53.068;18.224;2023-04-03T13:43:03;8.20;99.90
19924;DHT22;10124;53.068;18.224;2023-04-03T13:45:34;7.80;99.90
19924;DHT22;10124;53.068;18.224;2023-04-03T13:48:16;7.60;99.90
19924;DHT22;10124;53.068;18.224;2023-04-03T13:53:49;6.90;99.90
19924;DHT22;10124;53.068;18.224;2023-04-03T13:56:39;6.70;99.90
19924;DHT22;10124;53.068;18.224;2023-04-03T14:02:09;7.40;99.90
19924;DHT22;10124;53.068;18.224;2023-04-03T14:07:15;10.10;99.90
19924;DHT22;10124;53.068;18.224;2023-04-03T14:09:43;9.70;99.90
19924;DHT22;10124;53.068;18.224;2023-04-03T14:12:26;9.00;99.90
19924;DHT22;10124;53.068;18.224;2023-04-03T14:15:02;8.10;99.90
19924;DHT22;10124;53.068;18.224;2023-04-03T14:17:31;7.50;99.90
19924;DHT22;10124;53.068;18.224;2023-04-03T14:19:59;7.10;99.90
19924;DHT22;10124;53.068;18.224;2023-04-03T14:22:31;6.80;99.90
19924;DHT22;10124;53.068;18.224;2023-04-03T14:24:59;6.70;99.90
19924;DHT22;10124;53.068;18.224;2023-04-03T14:27:34;6.50;99.90
19924;DHT22;10124;53.068;18.224;2023-04-03T14:30:04;6.50;99.90
19924;DHT22;10124;53.068;18.224;2023-04-03T14:32:32;6.60;99.90
19924;DHT22;10124;53.068;18.224;2023-04-03T14:34:59;6.60;99.90
19924;DHT22;10124;53.068;18.224;2023-04-03T14:37:29;7.00;99.90
19924;DHT22;10124;53.068;18.224;2023-04-03T14:39:59;8.00;99.90
19924;DHT22;10124;53.068;18.224;2023-04-03T14:42:33;8.50;99.90
19924;DHT22;10124;53.068;18.224;2023-04-03T14:45:05;8.60;99.90
19924;DHT22;10124;53.068;18.224;2023-04-03T14:47:41;8.40;99.90
19924;DHT22;10124;53.068;18.224;2023-04-03T14:50:13;8.10;99.90
19924;DHT22;10124;53.068;18.224;2023-04-03T14:52:42;8.00;99.90
19924;DHT22;10124;53.068;18.224;2023-04-03T14:55:12;7.80;99.90
19924;DHT22;10124;53.068;18.224;2023-04-03T14:57:42;8.50;99.90
19924;DHT22;10124;53.068;18.224;2023-04-03T15:00:16;6.90;99.90
19924;DHT22;10124;53.068;18.224;2023-04-03T15:02:44;6.70;99.90
19924;DHT22;10124;53.068;18.224;2023-04-03T15:05:14;6.30;99.90
19924;DHT22;10124;53.068;18.224;2023-04-03T15:07:49;6.20;99.90
19924;DHT22;10124;53.068;18.224;2023-04-03T15:12:48;6.10;99.90
19924;DHT22;10124;53.068;18.224;2023-04-03T15:15:18;6.10;99.90
19924;DHT22;10124;53.068;18.224;2023-04-03T15:17:51;5.70;99.90
19924;DHT22;10124;53.068;18.224;2023-04-03T15:20:24;5.40;99.90
19924;DHT22;10124;53.068;18.224;2023-04-03T15:22:53;5.40;99.90
19924;DHT22;10124;53.068;18.224;2023-04-03T15:25:24;5.30;99.90
19924;DHT22;10124;53.068;18.224;2023-04-03T15:27:59;5.10;99.90
19924;DHT22;10124;53.068;18.224;2023-04-03T15:30:27;5.10;99.90
19924;DHT22;10124;53.068;18.224;2023-04-03T15:32:55;5.10;99.90
19924;DHT22;10124;53.068;18.224;2023-04-03T15:35:23;5.20;1.00
19924;DHT22;10124;53.068;18.224;2023-04-03T15:37:51;5.30;99.90
19924;DHT22;10124;53.068;18.224;2023-04-03T15:40:19;5.50;99.90
19924;DHT22;10124;53.068;18.224;2023-04-03T15:42:47;5.50;99.90
19924;DHT22;10124;53.068;18.224;2023-04-03T15:45:14;5.50;1.00
19924;DHT22;10124;53.068;18.224;2023-04-03T15:47:43;5.20;1.00
19924;DHT22;10124;53.068;18.224;2023-04-03T15:50:10;5.00;1.00
19924;DHT22;10124;53.068;18.224;2023-04-03T15:52:39;4.70;99.90
19924;DHT22;10124;53.068;18.224;2023-04-03T15:55:07;4.70;1.00
19924;DHT22;10124;53.068;18.224;2023-04-03T15:57:35;4.60;99.90
19924;DHT22;10124;53.068;18.224;2023-04-03T16:00:08;4.60;1.00
19924;DHT22;10124;53.068;18.224;2023-04-03T16:02:37;4.40;1.00
19924;DHT22;10124;53.068;18.224;2023-04-03T16:05:05;4.40;99.90
19924;DHT22;10124;53.068;18.224;2023-04-03T16:07:37;4.30;99.90
19924;DHT22;10124;53.068;18.224;2023-04-03T16:10:07;4.30;99.90
19924;DHT22;10124;53.068;18.224;2023-04-03T16:12:35;4.30;1.00
19924;DHT22;10124;53.068;18.224;2023-04-03T16:15:03;4.40;1.00
19924;DHT22;10124;53.068;18.224;2023-04-03T16:17:32;4.30;1.00
19924;DHT22;10124;53.068;18.224;2023-04-03T16:20:01;4.20;1.00
19924;DHT22;10124;53.068;18.224;2023-04-03T16:22:31;4.10;1.00
19924;DHT22;10124;53.068;18.224;2023-04-03T16:24:59;4.10;99.90
19924;DHT22;10124;53.068;18.224;2023-04-03T16:27:27;4.10;1.00
19924;DHT22;10124;53.068;18.224;2023-04-03T16:29:57;4.40;1.00
19924;DHT22;10124;53.068;18.224;2023-04-03T16:32:27;4.30;1.00
19924;DHT22;10124;53.068;18.224;2023-04-03T16:34:57;4.40;1.00
19924;DHT22;10124;53.068;18.224;2023-04-03T16:37:24;4.40;1.00
19924;DHT22;10124;53.068;18.224;2023-04-03T16:39:54;4.40;1.00
19924;DHT22;10124;53.068;18.224;2023-04-03T16:42:23;4.40;1.00
19924;DHT22;10124;53.068;18.224;2023-04-03T16:44:52;4.30;1.00
19924;DHT22;10124;53.068;18.224;2023-04-03T16:47:19;4.30;1.00
19924;DHT22;10124;53.068;18.224;2023-04-03T16:49:48;4.20;1.00
19924;DHT22;10124;53.068;18.224;2023-04-03T16:52:16;4.10;1.00
19924;DHT22;10124;53.068;18.224;2023-04-03T16:54:43;4.10;1.00
19924;DHT22;10124;53.068;18.224;2023-04-03T16:57:11;4.10;1.00
19924;DHT22;10124;53.068;18.224;2023-04-03T16:59:39;6.00;1.00
19924;DHT22;10124;53.068;18.224;2023-04-03T17:02:07;3.60;1.00
19924;DHT22;10124;53.068;18.224;2023-04-03T17:04:35;3.50;1.00
19924;DHT22;10124;53.068;18.224;2023-04-03T17:07:04;3.40;1.00
19924;DHT22;10124;53.068;18.224;2023-04-03T17:09:34;3.30;1.00
19924;DHT22;10124;53.068;18.224;2023-04-03T17:12:02;3.20;1.00
19924;DHT22;10124;53.068;18.224;2023-04-03T17:14:31;3.20;1.00
19924;DHT22;10124;53.068;18.224;2023-04-03T17:16:59;4.80;1.00
19924;DHT22;10124;53.068;18.224;2023-04-03T17:19:30;3.30;1.00
19924;DHT22;10124;53.068;18.224;2023-04-03T17:21:59;3.30;4.30
19924;DHT22;10124;53.068;18.224;2023-04-03T17:24:27;3.30;48.60
19924;DHT22;10124;53.068;18.224;2023-04-03T17:26:55;3.30;1.00
19924;DHT22;10124;53.068;18.224;2023-04-03T17:29:23;3.30;1.00
19924;DHT22;10124;53.068;18.224;2023-04-03T17:31:51;3.30;99.90
19924;DHT22;10124;53.068;18.224;2023-04-03T17:34:20;3.30;73.50
19924;DHT22;10124;53.068;18.224;2023-04-03T17:39:17;3.20;1.00
19924;DHT22;10124;53.068;18.224;2023-04-03T17:41:45;3.10;23.60
19924;DHT22;10124;53.068;18.224;2023-04-03T17:44:13;3.20;22.40
19924;DHT22;10124;53.068;18.224;2023-04-03T17:46:42;3.10;31.40
19924;DHT22;10124;53.068;18.224;2023-04-03T17:49:10;2.90;1.00
19924;DHT22;10124;53.068;18.224;2023-04-03T17:51:41;5.40;99.90
19924;DHT22;10124;53.068;18.224;2023-04-03T17:54:09;2.70;99.90
19924;DHT22;10124;53.068;18.224;2023-04-03T17:56:37;2.60;99.90
19924;DHT22;10124;53.068;18.224;2023-04-03T17:59:05;4.70;90.50
19924;DHT22;10124;53.068;18.224;2023-04-03T18:01:34;4.10;99.90
19924;DHT22;10124;53.068;18.224;2023-04-03T18:04:04;2.30;99.90
19924;DHT22;10124;53.068;18.224;2023-04-03T18:06:37;2.80;99.90
19924;DHT22;10124;53.068;18.224;2023-04-03T18:09:09;2.20;99.90
19924;DHT22;10124;53.068;18.224;2023-04-03T18:11:37;2.20;99.90
19924;DHT22;10124;53.068;18.224;2023-04-03T18:14:06;2.10;99.90
19924;DHT22;10124;53.068;18.224;2023-04-03T18:16:34;2.10;99.90
19924;DHT22;10124;53.068;18.224;2023-04-03T18:19:02;2.10;99.90
19924;DHT22;10124;53.068;18.224;2023-04-03T18:21:36;2.10;99.90
19924;DHT22;10124;53.068;18.224;2023-04-03T18:24:09;2.00;99.90
19924;DHT22;10124;53.068;18.224;2023-04-03T18:26:40;2.10;99.90
19924;DHT22;10124;53.068;18.224;2023-04-03T18:29:11;2.70;99.90
19924;DHT22;10124;53.068;18.224;2023-04-03T18:31:41;2.10;99.90
19924;DHT22;10124;53.068;18.224;2023-04-03T18:34:10;2.20;99.90
19924;DHT22;10124;53.068;18.224;2023-04-03T18:36:39;2.30;99.90
19924;DHT22;10124;53.068;18.224;2023-04-03T18:39:07;2.30;99.90
19924;DHT22;10124;53.068;18.224;2023-04-03T18:41:36;2.30;99.90
19924;DHT22;10124;53.068;18.224;2023-04-03T18:44:06;4.50;64.70
19924;DHT22;10124;53.068;18.224;2023-04-03T18:46:36;2.30;99.90
19924;DHT22;10124;53.068;18.224;2023-04-03T18:49:09;2.30;59.00
19924;DHT22;10124;53.068;18.224;2023-04-03T18:51:38;2.40;1.00
19924;DHT22;10124;53.068;18.224;2023-04-03T18:54:06;2.40;1.00
19924;DHT22;10124;53.068;18.224;2023-04-03T18:56:37;3.10;1.00
19924;DHT22;10124;53.068;18.224;2023-04-03T18:59:05;2.40;1.00
19924;DHT22;10124;53.068;18.224;2023-04-03T19:01:33;3.90;1.00
19924;DHT22;10124;53.068;18.224;2023-04-03T19:04:02;2.50;1.00
19924;DHT22;10124;53.068;18.224;2023-04-03T19:06:33;2.60;1.00
19924;DHT22;10124;53.068;18.224;2023-04-03T19:09:04;2.50;1.00
19924;DHT22;10124;53.068;18.224;2023-04-03T19:11:33;2.60;1.00
19924;DHT22;10124;53.068;18.224;2023-04-03T19:14:01;2.60;1.00
19924;DHT22;10124;53.068;18.224;2023-04-03T19:16:43;2.60;1.00
19924;DHT22;10124;53.068;18.224;2023-04-03T19:19:11;2.60;1.00
19924;DHT22;10124;53.068;18.224;2023-04-03T19:21:39;2.60;1.00
19924;DHT22;10124;53.068;18.224;2023-04-03T19:24:12;2.50;1.00
19924;DHT22;10124;53.068;18.224;2023-04-03T19:26:41;2.60;1.00
19924;DHT22;10124;53.068;18.224;2023-04-03T19:29:09;4.10;1.00
19924;DHT22;10124;53.068;18.224;2023-04-03T19:31:37;2.50;1.00
19924;DHT22;10124;53.068;18.224;2023-04-03T19:34:07;2.50;5.70
19924;DHT22;10124;53.068;18.224;2023-04-03T19:36:35;4.70;1.00
19924;DHT22;10124;53.068;18.224;2023-04-03T19:39:04;2.60;28.20
19924;DHT22;10124;53.068;18.224;2023-04-03T19:41:34;2.60;76.70
19924;DHT22;10124;53.068;18.224;2023-04-03T19:44:03;2.60;70.60
19924;DHT22;10124;53.068;18.224;2023-04-03T19:46:33;2.60;5.80
19924;DHT22;10124;53.068;18.224;2023-04-03T19:49:01;2.50;10.00
19924;DHT22;10124;53.068;18.224;2023-04-03T19:51:30;2.50;98.40
19924;DHT22;10124;53.068;18.224;2023-04-03T19:53:57;2.50;70.80
19924;DHT22;10124;53.068;18.224;2023-04-03T19:56:25;3.20;52.50
19924;DHT22;10124;53.068;18.224;2023-04-03T19:58:54;2.40;43.90
19924;DHT22;10124;53.068;18.224;2023-04-03T20:01:22;2.40;99.90
19924;DHT22;10124;53.068;18.224;2023-04-03T20:03:51;2.30;99.90
19924;DHT22;10124;53.068;18.224;2023-04-03T20:06:19;2.30;99.90
19924;DHT22;10124;53.068;18.224;2023-04-03T20:08:48;2.20;99.90
19924;DHT22;10124;53.068;18.224;2023-04-03T20:11:17;2.30;99.90
19924;DHT22;10124;53.068;18.224;2023-04-03T20:13:48;2.20;99.90
19924;DHT22;10124;53.068;18.224;2023-04-03T20:16:18;2.20;99.90
19924;DHT22;10124;53.068;18.224;2023-04-03T20:18:47;2.10;99.90
19924;DHT22;10124;53.068;18.224;2023-04-03T20:21:18;4.60;97.10
19924;DHT22;10124;53.068;18.224;2023-04-03T20:23:46;2.10;99.90
19924;DHT22;10124;53.068;18.224;2023-04-03T20:26:20;2.10;70.90
19924;DHT22;10124;53.068;18.224;2023-04-03T20:28:51;2.20;99.90
19924;DHT22;10124;53.068;18.224;2023-04-03T20:31:24;2.10;99.90
19924;DHT22;10124;53.068;18.224;2023-04-03T20:33:53;2.20;99.90
19924;DHT22;10124;53.068;18.224;2023-04-03T20:36:20;2.20;1.00
19924;DHT22;10124;53.068;18.224;2023-04-03T20:38:49;2.30;48.00
19924;DHT22;10124;53.068;18.224;2023-04-03T20:41:19;2.20;6.40
19924;DHT22;10124;53.068;18.224;2023-04-03T20:43:47;4.40;16.90
19924;DHT22;10124;53.068;18.224;2023-04-03T20:46:15;4.00;1.00
19924;DHT22;10124;53.068;18.224;2023-04-03T20:48:46;2.20;93.10
19924;DHT22;10124;53.068;18.224;2023-04-03T20:51:18;2.20;96.20
19924;DHT22;10124;53.068;18.224;2023-04-03T20:53:47;2.20;98.20
19924;DHT22;10124;53.068;18.224;2023-04-03T20:56:15;2.30;34.40
19924;DHT22;10124;53.068;18.224;2023-04-03T20:58:43;2.10;1.00
19924;DHT22;10124;53.068;18.224;2023-04-03T21:01:18;3.50;21.90
19924;DHT22;10124;53.068;18.224;2023-04-03T21:03:47;2.20;1.00
19924;DHT22;10124;53.068;18.224;2023-04-03T21:21:04;2.10;95.20
19924;DHT22;10124;53.068;18.224;2023-04-03T21:23:32;3.30;99.90
19924;DHT22;10124;53.068;18.224;2023-04-03T21:26:00;2.50;91.10
19924;DHT22;10124;53.068;18.224;2023-04-03T21:30:56;1.90;99.90
19924;DHT22;10124;53.068;18.224;2023-04-03T21:33:23;1.80;99.90
19924;DHT22;10124;53.068;18.224;2023-04-03T21:35:50;1.80;99.90
19924;DHT22;10124;53.068;18.224;2023-04-03T21:38:24;1.60;99.90
19924;DHT22;10124;53.068;18.224;2023-04-03T21:40:56;1.50;99.90
19924;DHT22;10124;53.068;18.224;2023-04-03T21:43:24;1.40;99.90
19924;DHT22;10124;53.068;18.224;2023-04-03T21:45:56;1.20;99.90
19924;DHT22;10124;53.068;18.224;2023-04-03T21:48:24;1.10;99.90
19924;DHT22;10124;53.068;18.224;2023-04-03T21:50:52;1.10;99.90
19924;DHT22;10124;53.068;18.224;2023-04-03T21:53:20;0.90;99.90
19924;DHT22;10124;53.068;18.224;2023-04-03T21:55:55;0.80;99.90
19924;DHT22;10124;53.068;18.224;2023-04-03T21:58:30;0.60;99.90
19924;DHT22;10124;53.068;18.224;2023-04-03T22:01:08;1.10;99.90
19924;DHT22;10124;53.068;18.224;2023-04-03T22:03:37;1.00;99.90
19924;DHT22;10124;53.068;18.224;2023-04-03T22:11:08;0.70;99.90
19924;DHT22;10124;53.068;18.224;2023-04-03T22:18:33;0.70;99.90
19924;DHT22;10124;53.068;18.224;2023-04-03T22:26:00;0.70;99.90
19924;DHT22;10124;53.068;18.224;2023-04-03T22:28:39;0.60;99.90
19924;DHT22;10124;53.068;18.224;2023-04-03T22:36:07;0.30;99.90
19924;DHT22;10124;53.068;18.224;2023-04-03T22:38:35;0.30;1.00
19924;DHT22;10124;53.068;18.224;2023-04-03T22:41:04;0.30;1.00
19924;DHT22;10124;53.068;18.224;2023-04-03T22:43:33;0.20;1.00
19924;DHT22;10124;53.068;18.224;2023-04-03T22:46:03;0.20;1.00
19924;DHT22;10124;53.068;18.224;2023-04-03T23:01:04;0.20;1.00
19924;DHT22;10124;53.068;18.224;2023-04-03T23:03:34;0.00;1.00
19924;DHT22;10124;53.068;18.224;2023-04-03T23:06:03;0.00;1.00
19924;DHT22;10124;53.068;18.224;2023-04-03T23:15:58;-0.20;1.00
19924;DHT22;10124;53.068;18.224;2023-04-03T23:18:27;-0.20;1.00
19924;DHT22;10124;53.068;18.224;2023-04-03T23:20:59;-0.10;1.00
19924;DHT22;10124;53.068;18.224;2023-04-03T23:25:57;0.00;1.00
19924;DHT22;10124;53.068;18.224;2023-04-03T23:31:01;0.00;1.00
19924;DHT22;10124;53.068;18.224;2023-04-03T23:33:30;0.10;1.00
19924;DHT22;10124;53.068;18.224;2023-04-03T23:36:04;0.10;1.00
